createdAt,value
2018-11-23T00:00:17.058Z,16.50
2018-11-23T00:02:49.614Z,15.60
2018-11-23T00:05:21.759Z,14.70
2018-11-23T00:07:53.882Z,14.40
2018-11-23T00:10:26.394Z,14.00
2018-11-23T00:12:57.967Z,14.00
2018-11-23T00:15:27.893Z,14.10
2018-11-23T00:17:59.204Z,14.00
2018-11-23T00:20:31.324Z,13.90
2018-11-23T00:23:02.660Z,13.50
2018-11-23T00:25:33.951Z,13.40
2018-11-23T00:28:04.852Z,13.50
2018-11-23T00:30:36.103Z,13.90
2018-11-23T00:33:07.896Z,14.70
2018-11-23T00:35:39.422Z,15.50
2018-11-23T00:38:10.966Z,16.50
2018-11-23T00:40:42.008Z,17.00
2018-11-23T00:43:13.784Z,18.00
2018-11-23T00:45:45.284Z,17.30
2018-11-23T00:48:16.352Z,15.90
2018-11-23T00:50:46.912Z,15.40
2018-11-23T00:53:18.374Z,15.00
2018-11-23T00:55:50.126Z,14.80
2018-11-23T00:58:22.124Z,14.60
2018-11-23T01:00:53.644Z,13.80
2018-11-23T01:03:24.502Z,13.60
2018-11-23T01:05:56.098Z,13.40
2018-11-23T01:08:27.935Z,13.80
2018-11-23T01:10:59.345Z,13.10
2018-11-23T01:13:30.810Z,13.20
2018-11-23T01:16:01.689Z,13.20
2018-11-23T01:18:33.132Z,13.10
2018-11-23T01:21:04.434Z,12.90
2018-11-23T01:23:35.688Z,12.50
2018-11-23T01:26:07.181Z,12.80
2018-11-23T01:28:38.370Z,13.90
2018-11-23T01:31:10.220Z,13.90
2018-11-23T01:33:41.654Z,14.30
2018-11-23T01:36:13.176Z,14.40
2018-11-23T01:38:44.556Z,14.70
2018-11-23T01:41:16.381Z,14.80
2018-11-23T01:43:46.371Z,14.70
2018-11-23T01:46:21.858Z,14.30
2018-11-23T01:48:52.430Z,14.40
2018-11-23T01:51:24.049Z,15.00
2018-11-23T01:53:56.035Z,15.50
2018-11-23T01:56:27.955Z,15.80
2018-11-23T01:58:59.589Z,15.60
2018-11-23T02:01:31.160Z,14.70
2018-11-23T02:04:02.594Z,13.90
2018-11-23T02:06:34.020Z,13.50
2018-11-23T02:09:06.242Z,13.20
2018-11-23T02:11:38.089Z,12.90
2018-11-23T02:14:09.202Z,12.90
2018-11-23T02:16:40.817Z,12.90
2018-11-23T02:19:12.244Z,12.90
2018-11-23T02:21:44.034Z,12.80
2018-11-23T02:24:16.108Z,12.90
2018-11-23T02:26:47.872Z,13.40
2018-11-23T02:29:20.613Z,14.20
2018-11-23T02:31:52.056Z,14.70
2018-11-23T02:34:23.694Z,15.30
2018-11-23T02:36:55.396Z,15.30
2018-11-23T02:39:26.860Z,15.40
2018-11-23T02:41:58.836Z,16.10
2018-11-23T02:44:29.462Z,16.20
2018-11-23T02:47:01.304Z,16.70
2018-11-23T02:49:32.956Z,17.60
2018-11-23T02:52:04.582Z,16.60
2018-11-23T02:54:36.386Z,15.90
2018-11-23T02:57:07.803Z,14.60
2018-11-23T02:59:38.032Z,13.60
2018-11-23T03:02:09.459Z,13.40
2018-11-23T03:04:41.245Z,13.00
2018-11-23T03:07:12.681Z,12.60
2018-11-23T03:09:44.651Z,12.30
2018-11-23T03:12:17.430Z,12.10
2018-11-23T03:14:49.264Z,11.80
2018-11-23T03:17:20.768Z,12.20
2018-11-23T03:19:52.167Z,12.70
2018-11-23T03:22:23.672Z,13.50
2018-11-23T03:24:54.443Z,14.00
2018-11-23T03:27:25.839Z,14.30
2018-11-23T03:29:57.301Z,14.60
2018-11-23T03:32:28.728Z,15.20
2018-11-23T03:35:00.321Z,15.30
2018-11-23T03:37:30.923Z,14.90
2018-11-23T03:40:02.626Z,14.40
2018-11-23T03:42:34.615Z,13.80
2018-11-23T03:45:06.568Z,13.60
2018-11-23T03:47:37.803Z,13.70
2018-11-23T03:50:08.937Z,14.00
2018-11-23T03:52:40.659Z,14.10
2018-11-23T03:55:12.088Z,14.00
2018-11-23T03:57:43.400Z,14.10
2018-11-23T04:00:17.444Z,14.10
2018-11-23T04:02:47.668Z,13.60
2018-11-23T04:05:19.815Z,13.40
2018-11-23T04:07:51.240Z,12.90
2018-11-23T04:10:22.729Z,12.60
2018-11-23T04:12:54.151Z,12.50
2018-11-23T04:15:25.598Z,12.60
2018-11-23T04:17:57.191Z,12.50
2018-11-23T04:20:28.777Z,12.50
2018-11-23T04:22:59.437Z,12.40
2018-11-23T04:25:30.939Z,12.20
2018-11-23T04:28:02.426Z,12.10
2018-11-23T04:30:33.784Z,12.70
2018-11-23T04:33:06.407Z,13.30
2018-11-23T04:35:38.263Z,13.60
2018-11-23T04:38:09.511Z,13.90
2018-11-23T04:40:41.043Z,14.10
2018-11-23T04:43:12.676Z,14.70
2018-11-23T04:45:43.249Z,13.40
2018-11-23T04:48:14.732Z,13.20
2018-11-23T04:50:46.153Z,13.50
2018-11-23T04:53:17.761Z,14.60
2018-11-23T04:55:49.111Z,14.10
2018-11-23T04:58:19.811Z,13.90
2018-11-23T05:00:50.941Z,13.10
2018-11-23T05:03:22.374Z,13.40
2018-11-23T05:05:53.933Z,13.70
2018-11-23T05:08:25.384Z,14.20
2018-11-23T05:10:57.221Z,14.40
2018-11-23T05:13:27.202Z,14.10
2018-11-23T05:15:58.477Z,13.30
2018-11-23T05:18:29.837Z,12.90
2018-11-23T05:21:01.363Z,12.20
2018-11-23T05:23:32.778Z,12.50
2018-11-23T05:26:02.902Z,12.60
2018-11-23T05:28:34.550Z,12.70
2018-11-23T05:31:06.170Z,12.70
2018-11-23T05:33:37.792Z,12.60
2018-11-23T05:36:09.085Z,12.60
2018-11-23T05:38:40.228Z,12.30
2018-11-23T05:41:11.503Z,12.40
2018-11-23T05:43:43.047Z,12.50
2018-11-23T05:46:31.977Z,12.70
2018-11-23T05:49:02.936Z,13.30
2018-11-23T05:51:33.625Z,13.00
2018-11-23T05:54:05.234Z,12.70
2018-11-23T05:56:36.912Z,12.70
2018-11-23T05:59:08.712Z,12.70
2018-11-23T06:01:40.220Z,13.30
2018-11-23T06:04:11.824Z,12.90
2018-11-23T06:06:42.427Z,13.20
2018-11-23T06:09:14.268Z,12.60
2018-11-23T06:11:45.752Z,12.60
2018-11-23T06:14:17.632Z,12.60
2018-11-23T06:16:49.472Z,12.60
2018-11-23T06:19:21.183Z,11.80
2018-11-23T06:21:52.643Z,11.20
2018-11-23T06:24:27.570Z,11.00
2018-11-23T06:26:56.721Z,10.90
2018-11-23T06:29:28.288Z,10.80
2018-11-23T06:31:59.119Z,10.70
2018-11-23T06:34:30.670Z,10.90
2018-11-23T06:37:02.148Z,11.20
2018-11-23T06:39:33.734Z,11.70
2018-11-23T06:42:22.377Z,12.60
2018-11-23T06:44:52.401Z,12.40
2018-11-23T06:47:22.547Z,13.10
2018-11-23T06:49:52.607Z,13.40
2018-11-23T06:52:22.677Z,12.80
2018-11-23T06:54:52.844Z,12.90
2018-11-23T06:57:39.844Z,13.00
2018-11-23T07:00:11.362Z,13.70
2018-11-23T07:02:43.388Z,13.80
2018-11-23T07:05:15.357Z,14.10
2018-11-23T07:07:46.986Z,14.60
2018-11-23T07:10:18.617Z,14.00
2018-11-23T07:12:49.519Z,13.60
2018-11-23T07:15:21.144Z,13.90
2018-11-23T07:17:52.479Z,13.80
2018-11-23T07:20:24.032Z,12.70
2018-11-23T07:22:54.614Z,12.10
2018-11-23T07:25:26.201Z,11.70
2018-11-23T07:27:58.323Z,11.80
2018-11-23T07:30:31.043Z,11.90
2018-11-23T07:33:02.851Z,11.80
2018-11-23T07:35:51.729Z,11.80
2018-11-23T07:38:22.125Z,11.50
2018-11-23T07:41:09.583Z,11.80
2018-11-23T07:43:39.504Z,10.90
2018-11-23T07:46:09.625Z,10.90
2018-11-23T07:48:41.158Z,11.10
2018-11-23T07:51:12.974Z,10.90
2018-11-23T07:53:45.121Z,11.50
2018-11-23T07:56:16.472Z,11.90
2018-11-23T07:58:48.087Z,12.40
2018-11-23T08:01:19.784Z,12.60
2018-11-23T08:03:50.881Z,12.60
2018-11-23T08:06:22.732Z,12.90
2018-11-23T08:08:54.916Z,13.70
2018-11-23T08:11:26.515Z,14.50
2018-11-23T08:13:57.441Z,14.90
2018-11-23T08:16:29.090Z,14.80
2018-11-23T08:19:00.729Z,14.20
2018-11-23T08:21:32.474Z,13.90
2018-11-23T08:24:03.094Z,13.90
2018-11-23T08:26:37.693Z,13.40
2018-11-23T08:29:08.819Z,13.60
2018-11-23T08:31:40.894Z,13.50
2018-11-23T08:34:12.715Z,13.50
2018-11-23T08:36:43.540Z,13.30
2018-11-23T08:39:15.017Z,13.30
2018-11-23T08:41:48.171Z,12.80
2018-11-23T08:44:19.901Z,12.30
2018-11-23T08:46:51.383Z,11.60
2018-11-23T08:49:22.073Z,11.50
2018-11-23T08:51:53.342Z,11.70
2018-11-23T08:54:24.784Z,11.60
2018-11-23T08:56:56.646Z,11.80
2018-11-23T08:59:28.236Z,12.30
2018-11-23T09:01:59.689Z,12.80
2018-11-23T09:04:31.438Z,13.30
2018-11-23T09:07:02.981Z,13.40
2018-11-23T09:09:34.398Z,13.10
2018-11-23T09:12:06.327Z,12.50
2018-11-23T09:14:36.469Z,12.20
2018-11-23T09:17:07.954Z,12.60
2018-11-23T09:19:40.599Z,13.10
2018-11-23T09:22:11.788Z,13.50
2018-11-23T09:24:44.343Z,13.30
2018-11-23T09:27:15.365Z,13.80
2018-11-23T09:29:47.128Z,14.20
2018-11-23T09:32:19.104Z,14.60
2018-11-23T09:34:51.089Z,14.80
2018-11-23T09:37:22.597Z,14.30
2018-11-23T09:39:54.103Z,13.80
2018-11-23T09:42:26.176Z,13.60
2018-11-23T09:44:57.631Z,13.40
2018-11-23T09:47:29.344Z,13.30
2018-11-23T09:50:00.754Z,13.30
2018-11-23T09:52:32.246Z,13.20
2018-11-23T09:55:04.006Z,13.30
2018-11-23T09:57:36.180Z,13.30
2018-11-23T10:00:10.194Z,13.40
2018-11-23T10:02:41.955Z,12.90
2018-11-23T10:05:14.075Z,12.80
2018-11-23T10:07:47.083Z,12.50
2018-11-23T10:10:19.624Z,12.40
2018-11-23T10:12:50.924Z,12.70
2018-11-23T10:15:23.517Z,13.40
2018-11-23T10:17:55.012Z,12.70
2018-11-23T10:20:29.166Z,12.60
2018-11-23T10:23:00.725Z,12.50
2018-11-23T10:25:33.859Z,12.80
2018-11-23T10:28:05.619Z,13.40
2018-11-23T10:30:38.025Z,13.10
2018-11-23T10:33:10.052Z,13.10
2018-11-23T10:35:41.757Z,13.30
2018-11-23T10:38:13.248Z,13.50
2018-11-23T10:40:45.046Z,13.90
2018-11-23T10:43:16.727Z,13.90
2018-11-23T10:45:47.406Z,14.40
2018-11-23T10:48:19.347Z,14.10
2018-11-23T10:50:51.042Z,13.70
2018-11-23T10:53:22.687Z,13.90
2018-11-23T10:55:55.308Z,14.30
2018-11-23T10:58:26.849Z,14.80
2018-11-23T11:01:17.266Z,15.20
2018-11-23T11:04:04.477Z,14.70
2018-11-23T11:06:54.173Z,15.10
2018-11-23T11:09:25.721Z,16.30
2018-11-23T11:11:58.132Z,17.10
2018-11-23T11:14:28.725Z,17.30
2018-11-23T11:17:00.341Z,17.30
2018-11-23T11:19:31.711Z,16.80
2018-11-23T11:22:02.313Z,16.60
2018-11-23T11:24:33.906Z,16.10
2018-11-23T11:27:04.659Z,16.60
2018-11-23T11:29:34.607Z,15.40
2018-11-23T11:32:04.648Z,14.90
2018-11-23T11:34:34.684Z,14.60
2018-11-23T11:37:04.829Z,14.50
2018-11-23T11:39:34.832Z,14.00
2018-11-23T11:42:07.002Z,14.10
2018-11-23T11:44:38.478Z,14.80
2018-11-23T11:47:10.461Z,15.40
2018-11-23T11:49:59.356Z,15.80
2018-11-23T11:52:29.675Z,16.60
2018-11-23T11:55:01.420Z,16.30
2018-11-23T11:57:32.910Z,16.60
2018-11-23T12:00:04.915Z,17.10
2018-11-23T12:02:36.549Z,17.30
2018-11-23T12:05:07.763Z,17.40
2018-11-23T12:07:39.396Z,17.60
2018-11-23T12:10:13.200Z,18.00
2018-11-23T12:12:44.898Z,17.90
2018-11-23T12:15:17.328Z,17.10
2018-11-23T12:17:47.394Z,17.10
2018-11-23T12:20:20.400Z,17.00
2018-11-23T12:22:52.532Z,18.00
2018-11-23T12:25:24.509Z,18.40
2018-11-23T12:27:56.044Z,18.50
2018-11-23T12:30:27.552Z,18.30
2018-11-23T12:33:01.307Z,17.60
2018-11-23T12:35:33.016Z,16.80
2018-11-23T12:38:04.860Z,16.90
2018-11-23T12:40:36.176Z,18.10
2018-11-23T12:43:07.379Z,18.50
2018-11-23T12:45:38.866Z,18.60
2018-11-23T12:48:10.372Z,18.90
2018-11-23T12:50:42.211Z,18.80
2018-11-23T12:53:13.908Z,18.10
2018-11-23T12:55:45.492Z,17.30
2018-11-23T12:58:15.976Z,16.80
2018-11-23T13:00:47.569Z,16.70
2018-11-23T13:03:19.160Z,16.60
2018-11-23T13:05:50.750Z,17.70
2018-11-23T13:08:22.344Z,17.90
2018-11-23T13:10:52.332Z,17.50
2018-11-23T13:13:24.100Z,17.50
2018-11-23T13:15:55.548Z,17.80
2018-11-23T13:18:26.694Z,18.00
2018-11-23T13:20:56.663Z,17.50
2018-11-23T13:23:28.380Z,17.50
2018-11-23T13:25:59.816Z,17.80
2018-11-23T13:28:31.536Z,18.40
2018-11-23T13:31:03.118Z,18.80
2018-11-23T13:33:33.064Z,18.80
2018-11-23T13:36:04.594Z,18.30
2018-11-23T13:38:36.146Z,17.80
2018-11-23T13:41:07.956Z,18.20
2018-11-23T13:43:39.558Z,18.90
2018-11-23T13:46:10.086Z,19.60
2018-11-23T13:48:41.843Z,20.00
2018-11-23T13:51:14.113Z,20.10
2018-11-23T13:53:45.708Z,19.40
2018-11-23T13:56:17.260Z,19.20
2018-11-23T13:58:48.522Z,17.90
2018-11-23T14:01:19.927Z,17.80
2018-11-23T14:03:51.739Z,18.10
2018-11-23T14:06:23.499Z,18.20
2018-11-23T14:08:54.799Z,18.30
2018-11-23T14:11:26.512Z,18.30
2018-11-23T14:13:58.822Z,18.30
2018-11-23T14:16:30.644Z,18.40
2018-11-23T14:19:01.679Z,18.50
2018-11-23T14:21:37.779Z,18.40
2018-11-23T14:24:08.982Z,18.00
2018-11-23T14:26:40.757Z,18.00
2018-11-23T14:29:12.394Z,17.90
2018-11-23T14:31:44.014Z,17.20
2018-11-23T14:34:15.824Z,16.90
2018-11-23T14:36:47.956Z,17.00
2018-11-23T14:39:19.538Z,16.90
2018-11-23T14:41:51.092Z,17.90
2018-11-23T14:44:22.517Z,18.40
2018-11-23T14:46:54.124Z,18.20
2018-11-23T14:49:25.965Z,18.30
2018-11-23T14:51:56.226Z,18.30
2018-11-23T14:54:28.078Z,18.10
2018-11-23T14:57:00.626Z,17.20
2018-11-23T14:59:32.362Z,17.30
2018-11-23T15:02:04.003Z,17.90
2018-11-23T15:04:34.836Z,18.40
2018-11-23T15:07:06.956Z,18.80
2018-11-23T15:09:38.493Z,19.00
2018-11-23T15:12:09.750Z,18.90
2018-11-23T15:14:40.994Z,18.80
2018-11-23T15:17:11.732Z,17.50
2018-11-23T15:19:43.228Z,18.10
2018-11-23T15:22:14.747Z,18.90
2018-11-23T15:24:46.271Z,19.60
2018-11-23T15:27:18.394Z,20.60
2018-11-23T15:29:49.045Z,20.00
2018-11-23T15:32:20.732Z,19.40
2018-11-23T15:34:52.138Z,19.00
2018-11-23T15:37:23.801Z,17.80
2018-11-23T15:39:55.430Z,17.40
2018-11-23T15:42:26.922Z,17.50
2018-11-23T15:44:58.581Z,17.60
2018-11-23T15:47:30.500Z,17.70
2018-11-23T15:50:02.056Z,17.70
2018-11-23T15:52:33.617Z,17.50
2018-11-23T15:55:04.352Z,17.20
2018-11-23T15:57:36.450Z,17.10
2018-11-23T16:00:09.235Z,16.90
2018-11-23T16:02:39.231Z,16.80
2018-11-23T16:05:11.801Z,17.80
2018-11-23T16:07:42.523Z,18.90
2018-11-23T16:10:32.002Z,19.60
2018-11-23T16:13:11.201Z,20.00
2018-11-23T16:15:37.245Z,20.10
2018-11-23T16:18:09.437Z,19.90
2018-11-23T16:20:56.487Z,19.10
2018-11-23T16:23:28.364Z,18.40
2018-11-23T16:26:00.041Z,18.00
2018-11-23T16:28:31.829Z,18.10
2018-11-23T16:31:03.548Z,18.10
2018-11-23T16:33:34.278Z,17.50
2018-11-23T16:36:05.812Z,17.30
2018-11-23T16:38:37.371Z,17.10
2018-11-23T16:41:08.775Z,16.90
2018-11-23T16:43:40.547Z,16.80
2018-11-23T16:46:11.935Z,17.00
2018-11-23T16:48:44.061Z,17.30
2018-11-23T16:51:15.737Z,17.60
2018-11-23T16:53:47.430Z,17.30
2018-11-23T16:56:18.997Z,16.60
2018-11-23T16:58:49.271Z,16.40
2018-11-23T17:01:20.659Z,16.30
2018-11-23T17:04:07.821Z,16.30
2018-11-23T17:06:39.469Z,15.50
2018-11-23T17:09:10.981Z,16.10
2018-11-23T17:11:45.166Z,16.80
2018-11-23T17:14:16.674Z,17.40
2018-11-23T17:16:48.492Z,17.70
2018-11-23T17:19:20.014Z,17.80
2018-11-23T17:21:51.740Z,17.80
2018-11-23T17:24:22.325Z,17.90
2018-11-23T17:26:53.962Z,18.10
2018-11-23T17:29:24.158Z,18.30
2018-11-23T17:31:56.294Z,18.30
2018-11-23T17:34:27.693Z,17.50
2018-11-23T17:36:59.326Z,17.60
2018-11-23T17:39:30.160Z,18.00
2018-11-23T17:42:01.557Z,18.50
2018-11-23T17:44:33.175Z,18.90
2018-11-23T17:47:04.770Z,18.90
2018-11-23T17:49:36.640Z,18.10
2018-11-23T17:52:06.749Z,17.20
2018-11-23T17:54:38.232Z,16.20
2018-11-23T17:57:09.076Z,15.60
2018-11-23T17:59:50.776Z,15.30
2018-11-23T18:02:24.744Z,15.40
2018-11-23T18:04:55.382Z,15.90
2018-11-23T18:07:27.400Z,16.30
2018-11-23T18:09:58.782Z,17.30
2018-11-23T18:12:29.825Z,17.80
2018-11-23T18:15:00.616Z,18.20
2018-11-23T18:17:32.173Z,18.40
2018-11-23T18:20:03.107Z,18.70
2018-11-23T18:22:34.726Z,19.20
2018-11-23T18:25:06.164Z,19.40
2018-11-23T18:28:03.669Z,19.30
2018-11-23T18:30:35.551Z,18.70
2018-11-23T18:33:10.009Z,18.00
2018-11-23T18:35:41.413Z,17.40
2018-11-23T18:38:11.282Z,17.20
2018-11-23T18:40:42.716Z,16.80
2018-11-23T18:43:14.266Z,16.70
2018-11-23T18:45:45.079Z,16.60
2018-11-23T18:48:32.497Z,16.70
2018-11-23T18:51:04.016Z,16.40
2018-11-23T18:53:35.649Z,16.20
2018-11-23T18:56:07.760Z,16.20
2018-11-23T18:58:39.616Z,16.10
2018-11-23T19:01:12.391Z,16.50
2018-11-23T19:03:43.909Z,17.80
2018-11-23T19:06:15.096Z,18.40
2018-11-23T19:08:45.764Z,19.00
2018-11-23T19:11:16.464Z,19.20
2018-11-23T19:13:47.296Z,19.40
2018-11-23T19:16:18.366Z,19.70
2018-11-23T19:18:49.132Z,20.00
2018-11-23T19:21:20.494Z,19.70
2018-11-23T19:23:52.156Z,19.00
2018-11-23T19:26:24.694Z,17.60
2018-11-23T19:28:55.844Z,16.40
2018-11-23T19:31:27.901Z,15.90
2018-11-23T19:33:59.742Z,16.40
2018-11-23T19:36:31.423Z,16.40
2018-11-23T19:39:02.307Z,16.30
2018-11-23T19:41:33.035Z,16.50
2018-11-23T19:44:03.736Z,16.70
2018-11-23T19:46:34.450Z,16.50
2018-11-23T19:49:05.646Z,17.50
2018-11-23T19:51:37.033Z,18.50
2018-11-23T19:54:07.802Z,18.40
2018-11-23T19:56:39.085Z,18.50
2018-11-23T19:59:09.777Z,18.40
2018-11-23T20:01:40.647Z,17.70
2018-11-23T20:04:10.844Z,17.10
2018-11-23T20:06:43.113Z,16.50
2018-11-23T20:09:16.436Z,16.30
2018-11-23T20:11:49.026Z,16.00
2018-11-23T20:14:21.226Z,15.90
2018-11-23T20:16:52.094Z,15.70
2018-11-23T20:19:24.917Z,15.60
2018-11-23T20:21:56.853Z,15.90
2018-11-23T20:24:27.553Z,16.50
2018-11-23T20:26:57.682Z,17.40
2018-11-23T20:29:27.952Z,17.80
2018-11-23T20:31:58.638Z,18.60
2018-11-23T20:34:28.666Z,18.80
2018-11-23T20:36:58.720Z,19.00
2018-11-23T20:39:28.890Z,19.10
2018-11-23T20:41:59.551Z,18.60
2018-11-23T20:44:30.686Z,18.10
2018-11-23T20:47:02.319Z,17.60
2018-11-23T20:49:33.818Z,16.90
2018-11-23T20:52:05.265Z,16.40
2018-11-23T20:54:36.757Z,16.30
2018-11-23T20:57:08.728Z,16.10
2018-11-23T20:59:40.944Z,16.00
2018-11-23T21:02:12.641Z,16.00
2018-11-23T21:04:44.070Z,16.00
2018-11-23T21:07:15.782Z,16.10
2018-11-23T21:09:46.572Z,16.50
2018-11-23T21:12:18.030Z,16.70
2018-11-23T21:14:49.698Z,17.70
2018-11-23T21:17:21.316Z,18.30
2018-11-23T21:19:53.192Z,17.80
2018-11-23T21:22:24.890Z,17.90
2018-11-23T21:24:56.636Z,17.90
2018-11-23T21:27:28.682Z,18.20
2018-11-23T21:30:00.096Z,18.40
2018-11-23T21:32:30.816Z,19.00
2018-11-23T21:35:02.717Z,19.10
2018-11-23T21:37:34.512Z,19.00
2018-11-23T21:40:09.822Z,18.20
2018-11-23T21:42:41.798Z,18.20
2018-11-23T21:45:21.690Z,18.30
2018-11-23T21:47:51.741Z,18.90
2018-11-23T21:50:25.506Z,19.20
2018-11-23T21:52:55.162Z,19.70
2018-11-23T21:55:26.746Z,18.30
2018-11-23T21:57:58.532Z,17.90
2018-11-23T22:00:31.733Z,18.50
2018-11-23T22:03:03.163Z,19.20
2018-11-23T22:05:34.579Z,19.60
2018-11-23T22:08:06.271Z,19.70
2018-11-23T22:10:37.740Z,19.50
2018-11-23T22:13:08.518Z,18.40
2018-11-23T22:15:40.426Z,17.40
2018-11-23T22:18:11.981Z,16.70
2018-11-23T22:20:43.470Z,17.10
2018-11-23T22:23:15.022Z,17.50
2018-11-23T22:25:45.874Z,17.80
2018-11-23T22:28:17.462Z,17.60
2018-11-23T22:30:49.275Z,17.60
2018-11-23T22:33:20.842Z,17.70
2018-11-23T22:35:52.440Z,17.80
2018-11-23T22:38:39.407Z,17.80
2018-11-23T22:41:09.476Z,17.40
2018-11-23T22:43:40.881Z,17.10
2018-11-23T22:46:12.463Z,17.00
2018-11-23T22:48:44.063Z,17.40
2018-11-23T22:51:15.954Z,17.40
2018-11-23T22:53:46.716Z,17.70
2018-11-23T22:56:18.337Z,17.40
2018-11-23T22:58:55.246Z,16.90
2018-11-23T23:01:22.303Z,16.70
2018-11-23T23:03:53.814Z,16.40
2018-11-23T23:06:24.554Z,16.50
2018-11-23T23:08:56.051Z,17.60
2018-11-23T23:11:42.773Z,17.50
2018-11-23T23:14:13.414Z,17.70
2018-11-23T23:16:45.176Z,18.00
2018-11-23T23:19:16.668Z,18.20
2018-11-23T23:21:46.730Z,18.40
2018-11-23T23:24:18.332Z,18.70
2018-11-23T23:26:49.813Z,18.80
2018-11-23T23:29:20.966Z,18.50
2018-11-23T23:31:52.660Z,17.70
2018-11-23T23:34:24.216Z,17.90
2018-11-23T23:36:55.725Z,18.50
2018-11-23T23:39:26.330Z,18.90
2018-11-23T23:41:58.169Z,19.30
2018-11-23T23:44:30.461Z,19.40
2018-11-23T23:47:02.086Z,18.40
2018-11-23T23:49:33.648Z,18.40
2018-11-23T23:52:04.433Z,18.80
2018-11-23T23:54:35.956Z,19.60
2018-11-23T23:57:07.676Z,20.00
2018-11-23T23:59:39.044Z,20.10
